메인 페이지
METAR-TAF:

METAR-TAF

공항 :

키슬러 공군 기지

빌럭시, 미시시피, 미국

위도: 30-25N, 경도: 088-55W, 고도: 10m

현재 날씨관측

예보는 14분 전, 21:56시(UTC)에 발표되었습니다.
무풍
온도 25°C
습도 94%
기압 1016 hPa
시정: 16.1km
고도 8500ft 상공 구름 많음

METAR: KBIX 212156Z AUTO 00000KT 10SM BKN085 25/24 A3000 RMK AO2 RAE27 SLP162 P0001 T02540236 $

시각: 17:10 (22:10 UTC)

예보

예보는 1 시간 39분 전, 20:31시(UTC)에 발표되었습니다.
예보 대상 시간: 21일 20시부터 22일 24시까지 (UTC)
6kt
시정: 8000m
고도 3000ft 상공 구름 많음, 적란운.
약한소나기, 시계 내 뇌우
일시적
21일 20시부터 21일 24시까지 (UTC)
여러 방향의 바람 10kt, 순간 최대 풍속 15kt
시정: 2400m
고도 2000ft 상공 구름 많음, 적란운.
뇌우, 비
전환 중
22일 00시부터 22일 01시까지 (UTC)
6kt
시정 10km 이상
고도 3000ft 상공 구름 보통
고도 10000ft 상공 구름 많음
전환 중
22일 17시부터 22일 18시까지 (UTC)
북서6kt
시정: 8000m
고도 3000ft 상공 구름 많음
약한소나기
일시적
22일 18시부터 22일 24시까지 (UTC)
여러 방향의 바람 10kt, 순간 최대 풍속 15kt
시정: 4800m
고도 2000ft 상공 구름 많음, 적란운.
뇌우, 약한비

TAF: KBIX 212031Z 2120/2224 10006KT 8000 -SHRA VCTS BKN030CB QNH3001INS TEMPO 2120/2124 VRB10G15KT 2400 TSRA BKN020CB BECMG 2200/2201 19006KT 9999 NSW SCT030 BKN100 QNH3003INS BECMG 2217/2218 31006KT 8000 -SHRA BKN030 QNH3002INS TEMPO 2218/2224 VRB10G15KT 4800 -TSRA BKN020CB TX26/2121Z TN23/2212Z

4,000개 이상의 공항 관측 자료 및 예보 (METAR 및 TAF 보고).

지도상에서 검색 가능한 기상관측소가 노란 점과 빨간 점으로 표시되어 있습니다.

기상관측소 명을 보려면 표시 위로 마우스를 이동하세요.

날씨 관측과 예보를 보려면 클릭하세요.

지도 변경 : 확대하려면 엑스 표시가 있는 녹색 버튼, 축소하려면 빼기 표시가 있는 녹색 버튼, 다음 페이지의 지도를 보려면 녹색 화살표를 클릭하세요.


METAR-TAF: